Time;durP1;ratioP1;P1;durP2;ratioP2;P2;SDS_P1;SDS_P2;PMS_P1;PMS_P2;Temp;Humidity;BMP_temperature;BMP_pressure;BME280_temperature;BME280_humidity;BME280_pressure;Samples;Min_cycle;Max_cycle;Signal;HPM_P1;HPM_P2
2021/11/11 00:02:03;;;;;;;;;;;9.00;88.30;;;;;;4366171;32;20134;-86
2021/11/11 00:04:31;;;;;;;;;;;8.90;88.20;;;;;;4366179;32;25259;-86
2021/11/11 00:07:04;;;;;;;;;;;9.00;88.30;;;;;;4379030;32;20480;-86
2021/11/11 00:09:35;;;;;;;;;;;9.00;88.30;;;;;;4378769;32;32248;-87
2021/11/11 00:12:05;;;;;;;;;;;8.90;88.30;;;;;;4365584;32;44115;-87
2021/11/11 00:14:38;;;;;;;;;;;8.90;88.40;;;;;;4378396;32;26362;-87
2021/11/11 00:17:05;;;;;;;;;;;8.90;88.60;;;;;;4365358;32;44918;-87
2021/11/11 00:19:35;;;;;;;;;;;8.80;88.60;;;;;;4379515;32;20054;-86
2021/11/11 00:22:09;;;;;;;;;;;8.80;88.60;;;;;;4379176;32;20004;-86
2021/11/11 00:24:36;;;;;;;;;;;8.80;88.60;;;;;;4366992;32;20011;-87
2021/11/11 00:27:09;;;;;;;;;;;8.80;88.60;;;;;;4366721;32;20051;-87
2021/11/11 00:29:40;;;;;;;;;;;8.80;88.60;;;;;;4365937;32;31630;-87
2021/11/11 00:32:10;;;;;;;;;;;8.80;88.60;;;;;;4365820;32;33887;-86
2021/11/11 00:34:41;;;;;;;;;;;8.80;89.40;;;;;;4379546;32;20413;-87
2021/11/11 00:37:14;;;;;;;;;;;8.70;88.60;;;;;;4366584;32;20069;-87
2021/11/11 00:39:41;;;;;;;;;;;8.70;88.60;;;;;;4365371;32;33912;-87
2021/11/11 00:42:09;;;;;;;;;;;8.70;88.70;;;;;;4365280;32;36117;-87
2021/11/11 00:44:40;;;;;;;;;;;8.70;88.60;;;;;;4366614;32;20403;-87
2021/11/11 00:47:07;;;;;;;;;;;8.70;88.70;;;;;;4377511;32;43081;-87
2021/11/11 00:49:38;;;;;;;;;;;8.70;88.60;;;;;;4366133;32;20012;-87
2021/11/11 00:52:09;;;;;;;;;;;8.70;88.60;;;;;;4377907;32;32378;-87
2021/11/11 00:54:37;;;;;;;;;;;8.70;88.70;;;;;;4366401;32;20083;-87
2021/11/11 00:57:08;;;;;;;;;;;8.70;88.70;;;;;;4378981;32;20071;-87
2021/11/11 00:59:41;;;;;;;;;;;8.60;88.80;;;;;;4379068;32;20056;-87
2021/11/11 01:02:13;;;;;;;;;;;8.60;88.80;;;;;;4377810;32;37992;-87
2021/11/11 01:04:41;;;;;;;;;;;8.60;88.80;;;;;;4365669;32;24069;-87
2021/11/11 01:07:11;;;;;;;;;;;8.60;88.80;;;;;;4364756;32;36813;-87
2021/11/11 01:09:45;;;;;;;;;;;8.60;88.70;;;;;;4378682;32;20035;-87
2021/11/11 01:12:15;;;;;;;;;;;8.60;88.80;;;;;;4365781;32;20011;-87
2021/11/11 01:14:42;;;;;;;;;;;8.60;89.40;;;;;;4378100;32;20480;-87
2021/11/11 01:17:13;;;;;;;;;;;8.60;88.70;;;;;;4366174;32;20078;-86
2021/11/11 01:19:40;;;;;;;;;;;8.60;88.80;;;;;;4378550;32;20081;-88
2021/11/11 01:22:08;;;;;;;;;;;8.60;88.80;;;;;;4366045;32;20001;-88
2021/11/11 01:24:38;;;;;;;;;;;8.50;88.80;;;;;;4377447;32;20039;-88
2021/11/11 01:27:11;;;;;;;;;;;8.50;89.00;;;;;;4377385;32;27641;-86
2021/11/11 01:29:38;;;;;;;;;;;8.40;89.10;;;;;;4376822;32;43123;-87
2021/11/11 01:32:09;;;;;;;;;;;8.40;89.10;;;;;;4376895;32;39734;-87
2021/11/11 01:34:38;;;;;;;;;;;8.40;89.20;;;;;;4376938;32;35553;-87
2021/11/11 01:37:09;;;;;;;;;;;8.40;89.20;;;;;;4378096;32;20024;-88
2021/11/11 01:39:42;;;;;;;;;;;8.40;89.20;;;;;;4366007;32;20001;-88
2021/11/11 01:42:12;;;;;;;;;;;8.40;89.20;;;;;;4378399;32;20022;-87
2021/11/11 01:44:49;;;;;;;;;;;8.40;89.10;;;;;;4364818;32;29895;-87
2021/11/11 01:47:16;;;;;;;;;;;8.40;89.10;;;;;;4364329;32;41486;-87
2021/11/11 01:49:43;;;;;;;;;;;8.40;89.10;;;;;;4376448;32;42558;-87
2021/11/11 01:52:17;;;;;;;;;;;8.40;89.00;;;;;;4364489;32;27618;-87
2021/11/11 01:54:44;;;;;;;;;;;8.40;89.10;;;;;;4377275;32;30486;-87
2021/11/11 01:57:14;;;;;;;;;;;8.30;89.10;;;;;;4377689;32;21128;-87
2021/11/11 01:59:44;;;;;;;;;;;8.40;89.10;;;;;;4364082;32;38320;-87
2021/11/11 02:02:32;;;;;;;;;;;8.40;89.10;;;;;;4367279;32;20059;-87
2021/11/11 02:04:59;;;;;;;;;;;8.40;89.10;;;;;;4364688;32;30992;-87
2021/11/11 02:07:27;;;;;;;;;;;8.40;89.10;;;;;;4377372;32;21760;-87
2021/11/11 02:09:56;;;;;;;;;;;8.30;89.10;;;;;;4377701;32;20000;-87
2021/11/11 02:12:24;;;;;;;;;;;8.30;89.10;;;;;;4376056;32;43282;-87
2021/11/11 02:14:51;;;;;;;;;;;8.30;89.10;;;;;;4377428;32;20431;-87
2021/11/11 02:17:28;;;;;;;;;;;8.30;89.10;;;;;;4365228;32;20007;-87
2021/11/11 02:20:02;;;;;;;;;;;8.30;89.10;;;;;;4377620;32;20000;-87
2021/11/11 02:22:35;;;;;;;;;;;8.20;89.10;;;;;;4365303;32;20007;-87
2021/11/11 02:25:07;;;;;;;;;;;8.20;89.20;;;;;;4390728;32;24885;-88
2021/11/11 02:27:37;;;;;;;;;;;8.10;89.30;;;;;;4364120;32;35562;-87
2021/11/11 02:30:09;;;;;;;;;;;8.10;89.40;;;;;;4364091;32;29185;-87
2021/11/11 02:32:37;;;;;;;;;;;8.10;89.50;;;;;;4390653;32;21115;-87
2021/11/11 02:35:08;;;;;;;;;;;8.10;89.60;;;;;;4376859;32;34482;-87
2021/11/11 02:37:38;;;;;;;;;;;8.10;89.60;;;;;;4376591;32;38343;-87
2021/11/11 02:40:12;;;;;;;;;;;8.10;89.50;;;;;;4377860;32;20015;-87
2021/11/11 02:42:41;;;;;;;;;;;8.10;89.50;;;;;;4377286;32;20063;-87
2021/11/11 02:45:16;;;;;;;;;;;8.10;89.50;;;;;;4377589;32;20082;-87
2021/11/11 02:47:47;;;;;;;;;;;8.10;89.50;;;;;;4364318;32;34575;-87
2021/11/11 02:50:17;;;;;;;;;;;8.10;89.50;;;;;;4377863;32;20043;-87
2021/11/11 02:52:51;;;;;;;;;;;8.10;89.40;;;;;;4376984;32;23110;-87
2021/11/11 02:55:22;;;;;;;;;;;8.10;89.30;;;;;;4365291;32;20435;-87
2021/11/11 02:57:52;;;;;;;;;;;8.10;89.20;;;;;;4364687;32;20016;-87
2021/11/11 03:00:22;;;;;;;;;;;8.10;89.20;;;;;;4364474;32;23861;-87
2021/11/11 03:02:52;;;;;;;;;;;8.10;89.10;;;;;;4376983;32;20008;-87
2021/11/11 03:05:24;;;;;;;;;;;8.10;89.20;;;;;;4364941;32;20015;-87
2021/11/11 03:07:54;;;;;;;;;;;8.10;89.20;;;;;;4377451;32;20528;-87
2021/11/11 03:10:26;;;;;;;;;;;8.00;89.20;;;;;;4376116;32;30331;-87
2021/11/11 03:12:57;;;;;;;;;;;8.00;89.20;;;;;;4377173;32;19996;-87
2021/11/11 03:15:28;;;;;;;;;;;8.00;89.20;;;;;;4363748;32;42667;-87
2021/11/11 03:17:58;;;;;;;;;;;8.00;89.20;;;;;;4376721;32;38259;-87
2021/11/11 03:20:25;;;;;;;;;;;8.00;89.20;;;;;;4376447;32;39736;-87
2021/11/11 03:22:53;;;;;;;;;;;8.00;89.30;;;;;;4376608;32;26040;-87
2021/11/11 03:25:24;;;;;;;;;;;8.00;89.30;;;;;;4377178;32;20012;-87
2021/11/11 03:27:55;;;;;;;;;;;8.00;89.40;;;;;;4364280;32;31326;-87
2021/11/11 03:30:26;;;;;;;;;;;7.90;89.30;;;;;;4364595;32;31323;-87
2021/11/11 03:32:59;;;;;;;;;;;7.90;89.30;;;;;;4366811;32;26649;-87
2021/11/11 03:35:29;;;;;;;;;;;7.90;89.30;;;;;;4379512;32;26567;-87
2021/11/11 03:38:02;;;;;;;;;;;7.90;89.40;;;;;;4380083;32;20427;-87
2021/11/11 03:40:32;;;;;;;;;;;7.90;89.40;;;;;;4366333;32;36718;-87
2021/11/11 03:43:00;;;;;;;;;;;7.80;89.40;;;;;;4367299;32;20048;-87
2021/11/11 03:45:33;;;;;;;;;;;7.80;89.40;;;;;;4366852;32;28644;-87
2021/11/11 03:48:05;;;;;;;;;;;7.80;89.50;;;;;;4367142;32;20014;-87
2021/11/11 03:50:33;;;;;;;;;;;7.80;89.50;;;;;;4367272;32;20007;-87
2021/11/11 03:53:02;;;;;;;;;;;7.80;89.50;;;;;;4366549;32;19996;-87
2021/11/11 03:55:33;;;;;;;;;;;7.70;89.50;;;;;;4378133;32;39096;-87
2021/11/11 03:58:01;;;;;;;;;;;7.70;89.70;;;;;;4366248;32;33615;-87
2021/11/11 04:00:29;;;;;;;;;;;7.70;89.70;;;;;;4392798;32;20442;-87
2021/11/11 04:02:57;;;;;;;;;;;7.70;89.60;;;;;;4367038;32;20060;-87
2021/11/11 04:05:27;;;;;;;;;;;7.70;89.60;;;;;;4366911;32;20009;-87
2021/11/11 04:08:00;;;;;;;;;;;7.70;89.70;;;;;;4366283;32;39398;-88
2021/11/11 04:10:30;;;;;;;;;;;7.60;89.70;;;;;;4366294;32;20004;-86
2021/11/11 04:13:04;;;;;;;;;;;7.70;89.80;;;;;;4391513;32;38269;-87
2021/11/11 04:15:34;;;;;;;;;;;7.60;89.70;;;;;;4366274;32;27670;-87
2021/11/11 04:18:07;;;;;;;;;;;7.60;89.80;;;;;;4379417;32;20064;-87
2021/11/11 04:20:37;;;;;;;;;;;7.60;89.80;;;;;;4366343;32;20844;-87
2021/11/11 04:23:07;;;;;;;;;;;7.60;89.80;;;;;;4365575;32;36996;-87
2021/11/11 04:25:44;;;;;;;;;;;7.60;89.70;;;;;;4365849;32;29966;-87
2021/11/11 04:28:22;;;;;;;;;;;7.60;89.70;;;;;;4366364;32;20048;-86
2021/11/11 04:30:59;;;;;;;;;;;7.60;89.70;;;;;;4393341;32;20051;-88
2021/11/11 04:33:26;;;;;;;;;;;7.60;89.70;;;;;;4366656;32;20010;-88
2021/11/11 04:36:05;;;;;;;;;;;7.60;89.70;;;;;;4379066;32;20040;-87
2021/11/11 05:02:53;;;;;;;;;;;7.40;90.00;;;;;;4378029;32;20421;-86
2021/11/11 05:05:24;;;;;;;;;;;7.30;90.00;;;;;;4366065;32;20005;-87
2021/11/11 05:07:57;;;;;;;;;;;7.30;90.00;;;;;;4378771;32;20026;-87
2021/11/11 05:10:25;;;;;;;;;;;7.30;90.10;;;;;;4366594;32;20040;-87
2021/11/11 05:13:00;;;;;;;;;;;7.30;90.10;;;;;;4377970;32;20345;-87
2021/11/11 05:15:33;;;;;;;;;;;7.30;90.10;;;;;;4366236;32;20004;-87
2021/11/11 05:18:03;;;;;;;;;;;7.30;90.10;;;;;;4392291;32;20060;-87
2021/11/11 05:20:36;;;;;;;;;;;7.30;90.00;;;;;;4378599;32;20041;-87
2021/11/11 05:23:03;;;;;;;;;;;7.30;90.00;;;;;;4378153;32;20479;-86
2021/11/11 05:25:33;;;;;;;;;;;7.30;89.90;;;;;;4365726;32;20015;-87
2021/11/11 05:28:06;;;;;;;;;;;7.40;89.80;;;;;;4378392;32;20452;-87
2021/11/11 05:30:33;;;;;;;;;;;7.30;89.70;;;;;;4365929;32;20087;-87
2021/11/11 05:33:07;;;;;;;;;;;7.40;89.80;;;;;;4378185;32;20044;-87
2021/11/11 05:35:39;;;;;;;;;;;7.30;89.60;;;;;;4378486;32;20015;-87
2021/11/11 05:38:15;;;;;;;;;;;7.30;89.60;;;;;;4377997;32;20051;-86
2021/11/11 05:40:42;;;;;;;;;;;7.30;89.60;;;;;;4377755;32;20075;-87
2021/11/11 05:43:12;;;;;;;;;;;7.30;89.60;;;;;;4366023;32;20432;-87
2021/11/11 05:45:45;;;;;;;;;;;7.30;89.60;;;;;;4378139;32;20064;-87
2021/11/11 05:48:21;;;;;;;;;;;7.30;89.60;;;;;;4378573;32;20135;-86
2021/11/11 05:50:50;;;;;;;;;;;7.30;89.70;;;;;;4377898;32;20022;-87
2021/11/11 05:53:21;;;;;;;;;;;7.20;89.70;;;;;;4365193;32;20026;-87
2021/11/11 05:55:51;;;;;;;;;;;7.30;89.70;;;;;;4378042;32;20356;-86
2021/11/11 05:58:21;;;;;;;;;;;7.30;89.80;;;;;;4365149;32;20000;-87
2021/11/11 06:00:51;;;;;;;;;;;7.20;89.80;;;;;;4377706;32;20004;-86
2021/11/11 06:03:24;;;;;;;;;;;7.20;89.80;;;;;;4365341;32;20016;-87
2021/11/11 06:05:54;;;;;;;;;;;7.20;89.90;;;;;;4365159;32;20016;-87
2021/11/11 06:08:24;;;;;;;;;;;7.20;89.90;;;;;;4377596;32;20004;-87
2021/11/11 06:11:00;;;;;;;;;;;7.20;89.90;;;;;;4365535;32;20010;-87
2021/11/11 06:13:30;;;;;;;;;;;7.20;89.90;;;;;;4365079;32;20422;-87
2021/11/11 06:15:57;;;;;;;;;;;7.20;89.90;;;;;;4377650;32;20016;-87
2021/11/11 06:18:31;;;;;;;;;;;7.20;89.90;;;;;;4376864;32;20004;-87
2021/11/11 06:21:02;;;;;;;;;;;7.20;89.80;;;;;;4377415;32;24438;-87
2021/11/11 06:23:29;;;;;;;;;;;7.20;89.80;;;;;;4364591;32;20377;-87
2021/11/11 06:26:01;;;;;;;;;;;7.10;89.80;;;;;;4364869;32;20031;-88
2021/11/11 06:28:29;;;;;;;;;;;7.10;90.20;;;;;;4364051;32;31964;-87
2021/11/11 06:30:57;;;;;;;;;;;7.10;89.90;;;;;;4377496;32;20016;-87
2021/11/11 06:33:24;;;;;;;;;;;7.00;89.90;;;;;;4364437;32;31211;-87
2021/11/11 06:35:56;;;;;;;;;;;7.00;89.80;;;;;;4364082;32;31951;-87
2021/11/11 06:38:26;;;;;;;;;;;7.00;89.90;;;;;;4365279;32;20543;-87
2021/11/11 06:40:56;;;;;;;;;;;7.00;89.70;;;;;;4377450;32;20416;-87
2021/11/11 06:43:27;;;;;;;;;;;7.00;89.90;;;;;;4377743;32;20043;-87
2021/11/11 06:45:54;;;;;;;;;;;6.90;89.80;;;;;;4364632;32;30803;-87
2021/11/11 06:48:24;;;;;;;;;;;6.90;90.00;;;;;;4365235;32;20060;-87
2021/11/11 06:50:51;;;;;;;;;;;6.80;90.00;;;;;;4377486;32;20406;-88
2021/11/11 06:53:21;;;;;;;;;;;6.80;90.10;;;;;;4365008;32;20034;-88
2021/11/11 06:55:52;;;;;;;;;;;6.80;90.10;;;;;;4364822;32;24095;-87
2021/11/11 06:58:24;;;;;;;;;;;6.80;90.10;;;;;;4363993;32;29836;-88
2021/11/11 07:00:52;;;;;;;;;;;6.70;90.10;;;;;;4377808;32;20007;-88
2021/11/11 07:03:20;;;;;;;;;;;6.70;90.10;;;;;;4364131;32;30089;-88
2021/11/11 07:06:24;;;;;;;;;;;6.70;90.10;;;;;;4366488;32;20004;-88
2021/11/11 07:08:57;;;;;;;;;;;6.70;90.00;;;;;;4367500;32;20010;-88
2021/11/11 07:11:27;;;;;;;;;;;6.70;90.00;;;;;;4393323;32;27032;-89
2021/11/11 07:13:54;;;;;;;;;;;6.70;90.00;;;;;;4367458;32;20059;-89
2021/11/11 07:16:27;;;;;;;;;;;6.70;90.00;;;;;;4368082;32;20059;-89
2021/11/11 07:18:57;;;;;;;;;;;6.60;90.00;;;;;;4367849;32;20532;-89
2021/11/11 07:21:28;;;;;;;;;;;6.60;90.10;;;;;;4379615;32;22501;-88
2021/11/11 07:24:00;;;;;;;;;;;6.60;90.10;;;;;;4380345;32;20121;-87
2021/11/11 07:26:30;;;;;;;;;;;6.60;90.20;;;;;;4367670;32;20025;-91
2021/11/11 07:29:00;;;;;;;;;;;6.50;90.10;;;;;;4366743;32;29813;-90
2021/11/11 07:31:28;;;;;;;;;;;6.60;90.10;;;;;;4380052;32;20018;-88
2021/11/11 07:34:01;;;;;;;;;;;6.50;90.10;;;;;;4380683;32;20012;-87
2021/11/11 07:36:30;;;;;;;;;;;6.60;90.10;;;;;;4379834;32;20436;-89
2021/11/11 07:38:59;;;;;;;;;;;6.50;90.10;;;;;;4380043;32;20374;-92
2021/11/11 07:41:33;;;;;;;;;;;6.50;90.10;;;;;;4379853;32;20016;-88
2021/11/11 07:44:03;;;;;;;;;;;6.50;90.20;;;;;;4366455;32;40007;-87
2021/11/11 07:46:33;;;;;;;;;;;6.50;90.20;;;;;;4379845;32;20022;-88
2021/11/11 07:49:03;;;;;;;;;;;6.50;90.20;;;;;;4379113;32;26815;-89
2021/11/11 07:51:36;;;;;;;;;;;6.50;90.30;;;;;;4366456;32;31339;-88
2021/11/11 07:54:06;;;;;;;;;;;6.40;90.30;;;;;;4367162;32;20004;-89
2021/11/11 07:56:37;;;;;;;;;;;6.40;90.50;;;;;;4367730;32;20076;-88
2021/11/11 07:59:07;;;;;;;;;;;6.40;90.50;;;;;;4367082;32;20000;-89
2021/11/11 08:01:37;;;;;;;;;;;6.40;90.50;;;;;;4366748;32;22478;-88
2021/11/11 08:04:10;;;;;;;;;;;6.40;90.60;;;;;;4367206;32;20016;-88
2021/11/11 08:06:43;;;;;;;;;;;6.30;90.60;;;;;;4379635;32;20038;-88
2021/11/11 08:09:15;;;;;;;;;;;6.40;90.70;;;;;;4366995;32;20011;-89
2021/11/11 08:11:45;;;;;;;;;;;6.40;90.70;;;;;;4366456;32;33592;-87
2021/11/11 08:14:15;;;;;;;;;;;6.40;90.60;;;;;;4366559;32;24850;-88
2021/11/11 08:16:46;;;;;;;;;;;6.40;90.60;;;;;;4365658;32;30701;-86
2021/11/11 08:19:16;;;;;;;;;;;6.40;90.60;;;;;;4366098;32;32010;-88
2021/11/11 08:21:46;;;;;;;;;;;6.50;90.70;;;;;;4366079;32;37250;-90
2021/11/11 08:24:17;;;;;;;;;;;6.50;90.70;;;;;;4366708;32;20141;-88
2021/11/11 08:26:50;;;;;;;;;;;6.50;90.70;;;;;;4366422;32;34303;-89
2021/11/11 08:29:17;;;;;;;;;;;6.50;90.80;;;;;;4392475;32;23580;-91
2021/11/11 08:31:47;;;;;;;;;;;6.50;90.80;;;;;;4379799;32;20008;-88
2021/11/11 08:34:17;;;;;;;;;;;6.50;90.90;;;;;;4378693;32;38936;-88
2021/11/11 08:36:46;;;;;;;;;;;6.40;90.90;;;;;;4378351;32;37225;-89
2021/11/11 08:39:16;;;;;;;;;;;6.40;91.00;;;;;;4379096;32;20023;-88
2021/11/11 08:41:46;;;;;;;;;;;6.40;91.10;;;;;;4378639;32;20006;-89
2021/11/11 08:44:13;;;;;;;;;;;6.40;91.20;;;;;;4365807;32;27044;-88
2021/11/11 08:46:44;;;;;;;;;;;6.40;91.20;;;;;;4379085;32;20000;-90
2021/11/11 08:49:11;;;;;;;;;;;6.40;91.30;;;;;;4365436;32;45072;-90
2021/11/11 08:51:44;;;;;;;;;;;6.40;91.40;;;;;;4379031;32;20000;-90
2021/11/11 08:54:14;;;;;;;;;;;6.30;91.40;;;;;;4379807;32;20035;-90
2021/11/11 08:56:47;;;;;;;;;;;6.30;91.50;;;;;;4392618;32;19996;-90
2021/11/11 08:59:22;;;;;;;;;;;6.40;91.60;;;;;;4365839;32;27215;-89
2021/11/11 09:01:50;;;;;;;;;;;6.40;91.60;;;;;;4391348;32;43576;-89
2021/11/11 09:04:18;;;;;;;;;;;6.40;91.70;;;;;;4378017;32;41443;-90
2021/11/11 09:06:51;;;;;;;;;;;6.40;91.70;;;;;;4379155;32;20010;-90
2021/11/11 09:09:21;;;;;;;;;;;6.40;91.70;;;;;;4378933;32;20004;-88
2021/11/11 09:11:53;;;;;;;;;;;6.40;91.80;;;;;;4378567;32;29055;-89
2021/11/11 09:14:24;;;;;;;;;;;6.40;91.80;;;;;;4378357;32;29009;-88
2021/11/11 09:16:51;;;;;;;;;;;6.50;91.80;;;;;;4365462;32;26988;-89
2021/11/11 09:19:21;;;;;;;;;;;6.50;91.90;;;;;;4390820;32;44712;-90
2021/11/11 09:21:52;;;;;;;;;;;6.50;91.90;;;;;;4378758;32;39900;-89
2021/11/11 09:24:19;;;;;;;;;;;6.50;91.90;;;;;;4378435;32;39624;-90
2021/11/11 09:26:46;;;;;;;;;;;6.50;91.90;;;;;;4377229;32;41782;-89
2021/11/11 09:29:14;;;;;;;;;;;6.50;91.90;;;;;;4390764;32;36571;-89
2021/11/11 09:31:41;;;;;;;;;;;6.50;92.00;;;;;;4365582;32;28085;-90
2021/11/11 09:34:11;;;;;;;;;;;6.50;92.30;;;;;;4365904;32;20008;-89
2021/11/11 09:36:38;;;;;;;;;;;6.60;92.10;;;;;;4366284;32;20063;-89
2021/11/11 09:39:06;;;;;;;;;;;6.60;92.10;;;;;;4391055;32;20008;-90
2021/11/11 09:41:34;;;;;;;;;;;6.60;92.10;;;;;;4378309;32;20006;-90
2021/11/11 09:44:01;;;;;;;;;;;6.60;92.10;;;;;;4378878;32;20000;-89
2021/11/11 09:46:31;;;;;;;;;;;6.60;92.10;;;;;;4378548;32;19988;-90
2021/11/11 09:49:04;;;;;;;;;;;6.70;92.10;;;;;;4379443;32;20019;-90
2021/11/11 09:51:31;;;;;;;;;;;6.70;92.20;;;;;;4366012;32;20446;-90
2021/11/11 09:59:33;;;;;;;;;;;6.80;92.20;;;;;;4378627;32;20012;-89
2021/11/11 10:02:02;;;;;;;;;;;6.80;92.20;;;;;;4378055;32;20022;-88
2021/11/11 10:05:05;;;;;;;;;;;6.90;92.30;;;;;;4365451;32;20427;-89
2021/11/11 10:07:34;;;;;;;;;;;6.90;92.30;;;;;;4364696;32;35257;-90
2021/11/11 10:10:02;;;;;;;;;;;7.00;92.20;;;;;;4376743;32;45007;-89
2021/11/11 10:12:31;;;;;;;;;;;7.00;92.20;;;;;;4377751;32;22739;-88
2021/11/11 10:15:09;;;;;;;;;;;7.10;92.20;;;;;;4377923;32;20008;-88
2021/11/11 10:17:41;;;;;;;;;;;7.20;92.20;;;;;;4377288;32;42051;-89
2021/11/11 10:20:12;;;;;;;;;;;7.20;92.20;;;;;;4365531;32;19993;-87
2021/11/11 10:22:42;;;;;;;;;;;7.30;92.20;;;;;;4377886;32;20000;-88
2021/11/11 10:25:12;;;;;;;;;;;7.40;92.20;;;;;;4377064;32;38103;-89
2021/11/11 10:27:57;;;;;;;;;;;7.40;92.20;;;;;;4377692;32;20383;-89
2021/11/11 10:30:26;;;;;;;;;;;7.40;92.20;;;;;;4377892;32;28287;-88
2021/11/11 10:32:58;;;;;;;;;;;7.50;92.20;;;;;;4378066;32;20018;-91
2021/11/11 10:35:32;;;;;;;;;;;7.60;92.30;;;;;;4365651;32;20408;-89
2021/11/11 10:38:02;;;;;;;;;;;7.60;92.20;;;;;;4378802;32;20008;-89
2021/11/11 10:40:41;;;;;;;;;;;7.70;92.20;;;;;;4366833;32;20016;-89
2021/11/11 10:43:22;;;;;;;;;;;7.70;92.20;;;;;;4381496;32;20026;-89
2021/11/11 10:45:56;;;;;;;;;;;7.80;92.10;;;;;;4381156;32;19996;-89
2021/11/11 10:48:27;;;;;;;;;;;7.80;92.10;;;;;;4381088;32;20054;-90
2021/11/11 10:50:58;;;;;;;;;;;7.90;92.10;;;;;;4394070;32;22723;-88
2021/11/11 10:53:30;;;;;;;;;;;7.90;92.00;;;;;;4367690;32;33853;-88
2021/11/11 10:56:02;;;;;;;;;;;8.00;92.10;;;;;;4380613;32;20005;-95
2021/11/11 10:58:34;;;;;;;;;;;8.00;92.10;;;;;;4368744;32;22905;-93
2021/11/11 11:01:03;;;;;;;;;;;8.00;92.10;;;;;;4381055;32;30923;-87
2021/11/11 11:03:44;;;;;;;;;;;8.10;92.10;;;;;;4368981;32;20047;-87
2021/11/11 11:06:16;;;;;;;;;;;8.10;92.10;;;;;;4368119;32;20003;-87
2021/11/11 11:08:44;;;;;;;;;;;8.20;92.10;;;;;;4367789;32;20044;-87
2021/11/11 11:11:15;;;;;;;;;;;8.20;92.10;;;;;;4367497;32;20007;-88
2021/11/11 11:13:49;;;;;;;;;;;8.30;92.10;;;;;;4380276;32;20391;-86
2021/11/11 11:16:22;;;;;;;;;;;8.30;92.40;;;;;;4367277;32;34717;-88
2021/11/11 11:19:00;;;;;;;;;;;8.30;92.10;;;;;;4367687;32;20001;-89
2021/11/11 11:21:40;;;;;;;;;;;8.40;92.10;;;;;;4381003;32;20018;-89
2021/11/11 11:24:16;;;;;;;;;;;8.40;92.10;;;;;;4367995;32;20122;-90
2021/11/11 11:26:54;;;;;;;;;;;8.50;92.00;;;;;;4380655;32;20013;-89
2021/11/11 11:29:36;;;;;;;;;;;8.50;92.10;;;;;;4379820;32;21985;-89
2021/11/11 11:32:19;;;;;;;;;;;8.50;92.10;;;;;;4367138;32;20004;-90
2021/11/11 11:34:48;;;;;;;;;;;8.60;92.10;;;;;;4366528;32;40109;-89
2021/11/11 11:37:17;;;;;;;;;;;8.60;92.20;;;;;;4366863;32;39682;-89
2021/11/11 11:39:44;;;;;;;;;;;8.60;92.10;;;;;;4367567;32;20005;-89
2021/11/11 11:42:19;;;;;;;;;;;8.70;92.30;;;;;;4367959;32;20000;-89
2021/11/11 11:44:51;;;;;;;;;;;8.70;92.20;;;;;;4380313;32;20044;-89
2021/11/11 11:47:33;;;;;;;;;;;8.70;92.20;;;;;;4367465;32;20405;-89
2021/11/11 11:50:02;;;;;;;;;;;8.80;92.20;;;;;;4380351;32;20008;-89
2021/11/11 11:52:36;;;;;;;;;;;8.90;92.20;;;;;;4367844;32;20016;-89
2021/11/11 11:55:18;;;;;;;;;;;8.90;92.20;;;;;;4367474;32;20020;-88
2021/11/11 12:40:35;;;;;;;;;;;9.40;92.20;;;;;;4378255;32;24808;-88
2021/11/11 12:43:13;;;;;;;;;;;9.40;92.30;;;;;;4366849;32;20388;-87
2021/11/11 12:45:47;;;;;;;;;;;9.40;92.30;;;;;;4378585;32;20059;-87
2021/11/11 12:48:16;;;;;;;;;;;9.40;92.30;;;;;;4366424;32;19996;-88
2021/11/11 12:50:50;;;;;;;;;;;9.50;92.30;;;;;;4366345;32;19992;-88
2021/11/11 12:53:18;;;;;;;;;;;9.50;92.40;;;;;;4365916;32;28443;-88
2021/11/11 12:55:51;;;;;;;;;;;9.50;92.40;;;;;;4366549;32;20059;-88
2021/11/11 12:58:21;;;;;;;;;;;9.50;92.40;;;;;;4379427;32;20104;-88
2021/11/11 13:00:57;;;;;;;;;;;9.60;92.40;;;;;;4366333;32;20390;-88
2021/11/11 13:03:46;;;;;;;;;;;9.60;92.40;;;;;;4365394;32;20026;-88
2021/11/11 13:06:32;;;;;;;;;;;9.60;92.40;;;;;;4359174;32;20020;-87
2021/11/11 13:09:09;;;;;;;;;;;9.70;92.50;;;;;;4378718;32;20011;-87
2021/11/11 13:11:41;;;;;;;;;;;9.70;92.40;;;;;;4366105;32;20001;-87
2021/11/11 13:14:19;;;;;;;;;;;9.70;92.40;;;;;;4365211;32;25569;-88
2021/11/11 13:17:01;;;;;;;;;;;9.80;92.40;;;;;;4366291;32;20044;-88
2021/11/11 13:19:37;;;;;;;;;;;9.80;92.40;;;;;;4377786;32;20004;-88
2021/11/11 13:25:54;;;;;;;;;;;9.90;92.40;;;;;;4381363;32;19992;-87
2021/11/11 14:00:14;;;;;;;;;;;10.30;92.50;;;;;;4378064;32;20012;-86
2021/11/11 16:28:56;;;;;;;;;;;11.20;91.60;;;;;;4332982;33;20068;-80
2021/11/11 16:31:39;;;;;;;;;;;11.20;91.60;;;;;;4345690;33;20016;-80
2021/11/11 16:34:06;;;;;;;;;;;11.20;91.60;;;;;;4349662;32;20463;-80
2021/11/11 16:36:36;;;;;;;;;;;11.20;91.50;;;;;;4378335;32;20035;-80
2021/11/11 16:39:04;;;;;;;;;;;11.20;91.50;;;;;;4392646;32;20064;-80
2021/11/11 16:41:34;;;;;;;;;;;11.20;91.50;;;;;;4379422;32;20081;-80
2021/11/11 16:44:01;;;;;;;;;;;11.20;91.50;;;;;;4366693;32;20103;-81
2021/11/11 16:46:28;;;;;;;;;;;11.20;91.50;;;;;;4366221;32;19996;-81
2021/11/11 16:48:55;;;;;;;;;;;11.20;91.40;;;;;;4392930;32;20063;-81
2021/11/11 16:51:23;;;;;;;;;;;11.20;91.40;;;;;;4378696;32;20011;-80
2021/11/11 16:53:53;;;;;;;;;;;11.20;91.40;;;;;;4391528;32;20009;-80
2021/11/11 16:56:23;;;;;;;;;;;11.10;91.40;;;;;;4392244;32;20055;-80
2021/11/11 16:58:51;;;;;;;;;;;11.10;91.40;;;;;;4378938;32;20009;-80
2021/11/11 17:01:20;;;;;;;;;;;11.20;91.40;;;;;;4378569;32;20471;-80
2021/11/11 17:03:48;;;;;;;;;;;11.10;91.30;;;;;;4391922;32;20012;-80
2021/11/11 17:06:16;;;;;;;;;;;11.10;91.30;;;;;;4366298;32;20000;-80
2021/11/11 17:08:44;;;;;;;;;;;11.10;91.30;;;;;;4365451;32;19993;-80
2021/11/11 17:11:12;;;;;;;;;;;11.10;91.30;;;;;;4390594;32;43833;-80
2021/11/11 17:13:43;;;;;;;;;;;11.10;91.30;;;;;;4390945;32;40089;-80
2021/11/11 17:16:12;;;;;;;;;;;11.10;91.30;;;;;;4377234;32;46065;-80
2021/11/11 17:18:39;;;;;;;;;;;11.10;91.20;;;;;;4390766;32;33777;-81
2021/11/11 17:21:11;;;;;;;;;;;11.10;91.20;;;;;;4376941;32;44005;-80
2021/11/11 17:23:46;;;;;;;;;;;11.10;91.20;;;;;;4391170;32;35573;-80
2021/11/11 17:26:18;;;;;;;;;;;11.10;91.20;;;;;;4377681;32;45315;-81
2021/11/11 17:28:46;;;;;;;;;;;11.10;91.20;;;;;;4378627;32;20012;-80
2021/11/11 17:31:13;;;;;;;;;;;11.10;91.20;;;;;;4391346;32;20016;-80
2021/11/11 17:33:42;;;;;;;;;;;11.00;91.10;;;;;;4377990;32;20020;-80
2021/11/11 17:36:10;;;;;;;;;;;11.10;91.20;;;;;;4377257;32;42671;-80
2021/11/11 17:38:38;;;;;;;;;;;11.10;91.10;;;;;;4376407;32;45328;-80
2021/11/11 17:41:07;;;;;;;;;;;11.00;91.00;;;;;;4390980;32;38778;-80
2021/11/11 17:43:36;;;;;;;;;;;11.00;91.00;;;;;;4390264;32;37301;-80
2021/11/11 17:46:18;;;;;;;;;;;11.00;91.00;;;;;;4376416;32;44498;-84
2021/11/11 17:48:49;;;;;;;;;;;11.00;91.00;;;;;;4377570;32;20038;-84
2021/11/11 17:54:07;;;;;;;;;;;11.00;90.90;;;;;;4377299;32;20306;-84
2021/11/11 17:56:37;;;;;;;;;;;11.00;90.90;;;;;;4365224;32;20000;-84
2021/11/11 17:59:04;;;;;;;;;;;11.00;90.80;;;;;;4364929;32;20023;-83
2021/11/11 18:01:38;;;;;;;;;;;10.90;90.80;;;;;;4391169;32;20011;-84
2021/11/11 18:04:08;;;;;;;;;;;10.90;90.80;;;;;;4364793;32;20470;-83
2021/11/11 18:06:38;;;;;;;;;;;10.90;90.80;;;;;;4377369;32;20050;-84
2021/11/11 18:09:11;;;;;;;;;;;10.90;90.80;;;;;;4377884;32;20076;-84
2021/11/11 18:11:42;;;;;;;;;;;10.90;90.90;;;;;;4378140;32;20017;-83
2021/11/11 18:14:22;;;;;;;;;;;10.90;90.80;;;;;;4365873;32;19999;-83
2021/11/11 18:16:53;;;;;;;;;;;10.90;90.80;;;;;;4376721;32;25599;-84
2021/11/11 18:19:25;;;;;;;;;;;10.90;90.80;;;;;;4377707;32;20020;-83
2021/11/11 18:21:54;;;;;;;;;;;10.80;90.70;;;;;;4364793;32;20505;-84
2021/11/11 18:24:26;;;;;;;;;;;10.80;90.60;;;;;;4364839;32;20063;-84
2021/11/11 18:26:54;;;;;;;;;;;10.80;90.60;;;;;;4377278;32;20004;-83
2021/11/11 18:29:31;;;;;;;;;;;10.80;90.60;;;;;;4376720;32;21346;-84
2021/11/11 18:32:06;;;;;;;;;;;10.80;90.60;;;;;;4390479;32;38812;-84
2021/11/11 18:34:39;;;;;;;;;;;10.70;90.60;;;;;;4377149;32;29611;-84
2021/11/11 18:37:09;;;;;;;;;;;10.70;90.60;;;;;;4364978;32;20012;-83
2021/11/11 18:39:39;;;;;;;;;;;10.70;90.50;;;;;;4365310;32;20000;-84
2021/11/11 18:42:14;;;;;;;;;;;10.70;90.50;;;;;;4365145;32;20050;-84
2021/11/11 18:44:45;;;;;;;;;;;10.70;90.50;;;;;;4363471;32;20012;-84
2021/11/11 18:49:49;;;;;;;;;;;10.70;90.30;;;;;;4377137;32;20077;-84
2021/11/11 18:52:18;;;;;;;;;;;10.60;90.30;;;;;;4364497;32;20012;-84
2021/11/11 18:54:46;;;;;;;;;;;10.60;90.30;;;;;;4364960;32;20393;-84
2021/11/11 18:57:14;;;;;;;;;;;10.60;90.30;;;;;;4364711;32;20001;-84
2021/11/11 18:59:41;;;;;;;;;;;10.60;90.30;;;;;;4365235;32;20109;-84
2021/11/11 19:02:13;;;;;;;;;;;10.60;90.20;;;;;;4655938;27;20048;-84
2021/11/11 19:05:02;;;;;;;;;;;10.60;90.30;;;;;;4337969;32;20417;-83
2021/11/11 19:07:36;;;;;;;;;;;10.50;90.20;;;;;;4337536;32;28435;-84
2021/11/11 19:10:13;;;;;;;;;;;10.50;90.10;;;;;;4337811;32;20016;-84
2021/11/11 19:13:06;;;;;;;;;;;10.50;90.10;;;;;;4337987;32;20056;-84